Vremea acum in Suceava - Romania

Vrei sa afli care e starea vremii acum in Suceava - Romania? Dorim sa iti furnizam starea vremii pentru Suceava - Romania. Starea vremii Suceava - Romania pentru astazi.

Vremea acum in Suceava

Temperatura: 21 °C

Se simte ca: 21 °C
Innorat: 0 %
Precipitatii: 0 %
Presiune atmosferica: 1025 hPa
Umiditate: 33%
Vizibilitate: 10 km
Vantul bate din SE cu 20.2 km/h

Evolutia vremii in Suceava pe ore

Ora: 15:00
Soare
Temperatura: 19.3°C
Sansa de precipitatii: 0%
Ora Descriere Temp Se simte Precipitatii Umiditate Vant
00:00Parțial noros11.5°11.2°0%49%S 6.5 KM/H
01:00Parțial noros11.2°10.8°0%51%S 6.1 KM/H
02:00Parțial noros10.8°10.4°0%53%S 6.1 KM/H
03:00Senin10.7°10.3°0%53%S 6.1 KM/H
04:00Parțial noros10.6°10.1°0%54%S 6.1 KM/H
05:00Senin10.5°10°0%55%S 6.1 KM/H
06:00Senin11.2°10.9°0%54%S 6.1 KM/H
07:00Senin12°11.7°0%52%S 6.1 KM/H
08:00Soare12.7°12.6°0%51%S 6.1 KM/H
09:00Soare14.6°14.5°0%45%SSE 9.7 KM/H
10:00Soare16.4°16.4°0%39%SSE 13 KM/H
11:00Soare18.3°18.3°0%33%SE 16.6 KM/H
12:00Soare19.1°19.1°0%32%SE 17.3 KM/H
13:00Soare19.8°19.8°0%32%SE 18.4 KM/H
14:00Soare20.6°20.6°0%32%SE 19.1 KM/H
15:00Soare19.3°19.3°0%36%SE 16.6 KM/H
16:00Soare18°18°0%41%SE 14.4 KM/H
17:00Soare16.7°16.7°0%45%SE 11.9 KM/H
18:00Soare15.8°15.7°0%49%SSE 10.4 KM/H
19:00Senin14.8°14.6°0%53%SSE 9.4 KM/H
20:00Senin13.9°13.6°0%57%S 7.9 KM/H
21:00Senin13.6°13.5°0%59%S 7.2 KM/H
22:00Senin13.4°13.3°0%60%SSW 6.1 KM/H
23:00Senin13.1°13.2°0%61%SSW 5.4 KM/H